Time;durP1;ratioP1;P1;durP2;ratioP2;P2;SDS_P1;SDS_P2;PMS_P1;PMS_P2;Temp;Humidity;BMP_temperature;BMP_pressure;BME280_temperature;BME280_humidity;BME280_pressure;Samples;Min_cycle;Max_cycle;Signal;HPM_P1;HPM_P2
2023/11/08 00:01:33;;;;;;;3.78;2.42;;;9.60;96.80;;;;;;4914562;29;20048;-82
2023/11/08 00:03:59;;;;;;;5.32;2.58;;;9.60;96.90;;;;;;4915614;29;20032;-82
2023/11/08 00:06:26;;;;;;;6.15;2.88;;;9.60;97.00;;;;;;4909090;29;20035;-82
2023/11/08 00:08:58;;;;;;;2.85;2.00;;;9.60;97.10;;;;;;4913573;29;20032;-83
2023/11/08 00:11:24;;;;;;;4.13;2.42;;;9.60;97.10;;;;;;4913089;29;20068;-80
2023/11/08 00:13:55;;;;;;;3.92;2.47;;;9.60;97.10;;;;;;4914506;29;20028;-83
2023/11/08 00:16:25;;;;;;;3.08;2.00;;;9.60;97.10;;;;;;4930941;29;20693;-79
2023/11/08 00:18:50;;;;;;;3.03;2.15;;;9.60;97.20;;;;;;4913748;29;20025;-80
2023/11/08 00:21:17;;;;;;;4.43;2.90;;;9.60;97.20;;;;;;4913776;29;20030;-81
2023/11/08 00:23:42;;;;;;;2.53;2.00;;;9.60;97.20;;;;;;4914479;29;20032;-80
2023/11/08 00:26:08;;;;;;;4.05;2.22;;;9.60;97.30;;;;;;4904976;29;20573;-82
2023/11/08 00:28:34;;;;;;;3.72;2.30;;;9.60;97.20;;;;;;4927501;29;20032;-81
2023/11/08 00:30:59;;;;;;;4.95;3.35;;;9.70;97.20;;;;;;4913449;29;20447;-81
2023/11/08 00:33:25;;;;;;;6.43;3.28;;;9.60;97.30;;;;;;4914590;29;20084;-81
2023/11/08 00:35:51;;;;;;;4.55;2.22;;;9.60;97.40;;;;;;4913524;29;20044;-82
2023/11/08 00:38:16;;;;;;;2.22;1.50;;;9.50;97.50;;;;;;4912904;29;20025;-82
2023/11/08 00:40:42;;;;;;;2.85;1.33;;;9.50;97.50;;;;;;4909994;29;20404;-82
2023/11/08 00:43:09;;;;;;;2.38;1.80;;;9.50;97.50;;;;;;4911160;29;20028;-81
2023/11/08 00:45:35;;;;;;;1.83;1.40;;;9.60;97.60;;;;;;4913751;29;20395;-81
2023/11/08 00:48:01;;;;;;;2.17;1.70;;;9.60;97.60;;;;;;4913778;29;20054;-81
2023/11/08 00:50:28;;;;;;;4.63;2.00;;;9.60;97.60;;;;;;4914315;29;20047;-83
2023/11/08 00:52:57;;;;;;;1.75;1.42;;;9.60;97.60;;;;;;4912170;29;20024;-83
2023/11/08 00:55:24;;;;;;;1.42;1.25;;;9.60;97.70;;;;;;4929033;29;20036;-82
2023/11/08 00:57:50;;;;;;;1.98;1.10;;;9.60;97.70;;;;;;4912731;29;20059;-82
2023/11/08 01:00:16;;;;;;;2.13;1.60;;;9.60;97.70;;;;;;4911427;29;20035;-82
2023/11/08 01:02:41;;;;;;;2.35;1.38;;;9.60;97.70;;;;;;4916184;29;20028;-82
2023/11/08 01:05:08;;;;;;;3.10;1.70;;;9.60;97.70;;;;;;4913186;29;20547;-82
2023/11/08 01:07:33;;;;;;;3.80;2.05;;;9.60;97.80;;;;;;4909765;29;20088;-82
2023/11/08 01:09:59;;;;;;;1.98;1.45;;;9.60;97.80;;;;;;4915877;29;20032;-82
2023/11/08 01:12:25;;;;;;;1.75;1.40;;;9.60;97.80;;;;;;4912232;29;20079;-81
2023/11/08 01:14:51;;;;;;;1.85;1.30;;;9.50;97.80;;;;;;4907247;29;20496;-81
2023/11/08 01:17:17;;;;;;;3.17;2.05;;;9.50;97.90;;;;;;4912727;29;20048;-82
2023/11/08 01:19:42;;;;;;;1.45;1.08;;;9.60;98.00;;;;;;4908697;29;20063;-82
2023/11/08 01:22:09;;;;;;;2.15;1.20;;;9.60;97.90;;;;;;4914803;29;20092;-82
2023/11/08 01:24:36;;;;;;;1.67;1.20;;;9.60;98.00;;;;;;4912640;29;20032;-82
2023/11/08 01:27:03;;;;;;;1.85;1.45;;;9.60;97.90;;;;;;4909897;29;20123;-83
2023/11/08 01:29:30;;;;;;;1.38;1.13;;;9.70;97.90;;;;;;4911322;29;20068;-82
2023/11/08 01:31:56;;;;;;;1.95;0.95;;;9.70;97.90;;;;;;4906552;29;20092;-82
2023/11/08 01:34:21;;;;;;;1.73;1.30;;;9.70;97.80;;;;;;4911006;29;20446;-82
2023/11/08 01:36:48;;;;;;;2.03;1.40;;;9.70;97.90;;;;;;4909703;29;20063;-82
2023/11/08 01:39:13;;;;;;;2.42;1.13;;;9.70;97.90;;;;;;4906238;29;20434;-81
2023/11/08 01:41:45;;;;;;;1.52;1.15;;;9.70;97.90;;;;;;4908305;29;20027;-82
2023/11/08 01:44:12;;;;;;;1.80;1.20;;;9.70;97.90;;;;;;4910774;29;20106;-81
2023/11/08 01:46:39;;;;;;;1.60;1.30;;;9.70;97.90;;;;;;4911899;29;20039;-81
2023/11/08 01:49:05;;;;;;;1.60;1.38;;;9.70;97.90;;;;;;4911051;29;20361;-82
2023/11/08 01:51:30;;;;;;;1.48;1.20;;;9.80;97.90;;;;;;4911227;29;20047;-82
2023/11/08 01:53:57;;;;;;;1.40;1.30;;;9.80;97.90;;;;;;4910627;29;20484;-82
2023/11/08 01:56:23;;;;;;;3.33;1.52;;;9.80;97.80;;;;;;4910362;29;20035;-82
2023/11/08 01:58:51;;;;;;;1.40;1.20;;;9.90;97.90;;;;;;4910375;29;20032;-83
2023/11/08 02:01:18;;;;;;;2.05;1.20;;;9.80;97.80;;;;;;4917381;29;20559;-82
2023/11/08 02:03:46;;;;;;;2.45;1.70;;;9.80;97.90;;;;;;4905753;29;20067;-82
2023/11/08 02:06:13;;;;;;;1.77;1.17;;;9.80;97.90;;;;;;4912480;29;20032;-83
2023/11/08 02:08:40;;;;;;;3.33;1.35;;;9.90;97.90;;;;;;4910888;29;20039;-83
2023/11/08 02:11:07;;;;;;;2.80;1.85;;;9.90;97.90;;;;;;4910871;29;20075;-82
2023/11/08 02:13:33;;;;;;;1.45;1.35;;;9.90;97.90;;;;;;4910362;29;20029;-82
2023/11/08 02:15:59;;;;;;;2.25;1.27;;;9.90;97.90;;;;;;4909182;29;20032;-82
2023/11/08 02:18:25;;;;;;;2.03;1.70;;;9.90;97.90;;;;;;4909480;29;20511;-83
2023/11/08 02:20:52;;;;;;;2.13;1.55;;;9.90;97.90;;;;;;4909540;29;20031;-83
2023/11/08 02:23:17;;;;;;;1.85;1.60;;;9.90;97.90;;;;;;4908985;29;20031;-84
2023/11/08 02:25:43;;;;;;;1.85;1.20;;;9.90;97.90;;;;;;4912895;29;20420;-83
2023/11/08 02:28:09;;;;;;;1.45;1.35;;;10.00;97.90;;;;;;4925468;29;20031;-83
2023/11/08 02:30:35;;;;;;;2.33;1.80;;;10.00;97.80;;;;;;4911159;29;20496;-83
2023/11/08 02:33:00;;;;;;;3.17;1.50;;;10.00;97.80;;;;;;4911592;29;20091;-83
2023/11/08 02:35:26;;;;;;;1.75;1.33;;;10.00;97.80;;;;;;4910457;29;20024;-83
2023/11/08 02:37:52;;;;;;;3.85;1.60;;;10.00;97.80;;;;;;4911302;29;20040;-80
2023/11/08 02:40:18;;;;;;;2.65;1.40;;;10.00;97.70;;;;;;4908223;29;20032;-81
2023/11/08 02:42:48;;;;;;;1.45;1.13;;;10.00;97.70;;;;;;4909076;29;20036;-81
2023/11/08 02:45:14;;;;;;;1.77;1.20;;;10.10;97.80;;;;;;4906537;29;20559;-82
2023/11/08 02:47:40;;;;;;;1.10;1.08;;;10.10;97.80;;;;;;4907374;29;20111;-80
2023/11/08 02:50:07;;;;;;;1.30;1.20;;;10.10;97.70;;;;;;4911597;29;20083;-81
2023/11/08 02:52:33;;;;;;;1.63;1.20;;;10.10;97.70;;;;;;4921948;29;20456;-81
2023/11/08 02:54:58;;;;;;;1.83;1.40;;;10.20;97.70;;;;;;4910497;29;20059;-81
2023/11/08 02:57:26;;;;;;;2.28;1.60;;;10.20;97.70;;;;;;4907572;29;20087;-81
2023/11/08 02:59:52;;;;;;;3.28;2.00;;;10.20;97.60;;;;;;4912431;29;20035;-81
2023/11/08 03:02:20;;;;;;;2.15;1.92;;;10.10;97.60;;;;;;4910757;29;20032;-81
2023/11/08 03:04:45;;;;;;;3.03;1.90;;;10.10;97.60;;;;;;4908739;29;20532;-81
2023/11/08 03:07:12;;;;;;;2.50;1.60;;;10.00;97.60;;;;;;4909309;29;20112;-82
2023/11/08 03:09:37;;;;;;;2.22;1.50;;;10.00;97.70;;;;;;4914817;29;20055;-82
2023/11/08 03:12:03;;;;;;;3.95;2.60;;;10.00;97.70;;;;;;4915089;29;20044;-82
2023/11/08 03:14:29;;;;;;;4.47;2.42;;;9.90;97.80;;;;;;4906620;29;20457;-81
2023/11/08 03:16:56;;;;;;;3.85;2.20;;;9.90;97.90;;;;;;4909593;29;20495;-81
2023/11/08 03:19:21;;;;;;;2.30;1.92;;;9.90;98.00;;;;;;4911062;29;20028;-81
2023/11/08 03:21:48;;;;;;;3.30;2.00;;;9.80;98.00;;;;;;4909288;29;20035;-81
2023/11/08 03:24:14;;;;;;;2.78;2.03;;;9.80;98.00;;;;;;4910266;29;20025;-82
2023/11/08 03:26:40;;;;;;;3.05;1.83;;;9.80;98.00;;;;;;4911419;29;20036;-81
2023/11/08 03:29:06;;;;;;;3.08;2.50;;;9.80;98.10;;;;;;4911437;29;20484;-81
2023/11/08 03:31:32;;;;;;;3.28;1.90;;;9.70;98.10;;;;;;4912592;29;20099;-81
2023/11/08 03:33:58;;;;;;;3.08;2.20;;;9.70;98.20;;;;;;4912382;29;20253;-80
2023/11/08 03:36:28;;;;;;;4.22;2.47;;;9.70;98.20;;;;;;4913309;29;20051;-80
2023/11/08 03:38:55;;;;;;;3.30;2.45;;;9.70;98.30;;;;;;4915052;29;20039;-80
2023/11/08 03:41:25;;;;;;;4.60;2.10;;;9.70;98.30;;;;;;4912275;29;20096;-81
2023/11/08 03:43:54;;;;;;;3.78;2.60;;;9.70;98.30;;;;;;4915277;29;20167;-80
2023/11/08 03:46:21;;;;;;;2.65;1.77;;;9.70;98.30;;;;;;4911199;29;20024;-81
2023/11/08 03:48:54;;;;;;;4.03;2.17;;;9.70;98.30;;;;;;4913652;29;20024;-81
2023/11/08 03:51:20;;;;;;;4.55;2.40;;;9.70;98.40;;;;;;4912448;29;20091;-81
2023/11/08 03:53:45;;;;;;;3.53;1.83;;;9.70;98.40;;;;;;4914899;29;20472;-82
2023/11/08 03:56:14;;;;;;;2.20;1.50;;;9.70;98.40;;;;;;4910806;29;20032;-82
2023/11/08 03:58:39;;;;;;;4.63;2.10;;;9.70;98.30;;;;;;4908282;29;20051;-82
2023/11/08 04:01:05;;;;;;;2.22;1.60;;;9.70;98.40;;;;;;4915594;29;20441;-81
2023/11/08 04:03:31;;;;;;;2.78;1.88;;;9.70;98.50;;;;;;4912490;29;20043;-82
2023/11/08 04:05:57;;;;;;;3.55;1.90;;;9.70;98.70;;;;;;4911808;29;20058;-81
2023/11/08 04:08:22;;;;;;;3.35;1.98;;;9.70;98.50;;;;;;4913284;29;20512;-81
2023/11/08 04:10:48;;;;;;;4.47;2.13;;;9.70;98.50;;;;;;4916484;29;20040;-82
2023/11/08 04:13:13;;;;;;;4.10;2.20;;;9.70;98.50;;;;;;4909823;29;20036;-81
2023/11/08 04:15:39;;;;;;;3.60;1.85;;;9.70;98.60;;;;;;4913190;29;20031;-81
2023/11/08 04:18:05;;;;;;;1.55;1.30;;;9.60;98.60;;;;;;4912097;29;20059;-82
2023/11/08 04:20:30;;;;;;;2.10;1.65;;;9.70;98.60;;;;;;4908240;29;20562;-82
2023/11/08 04:22:56;;;;;;;2.25;1.35;;;9.70;98.70;;;;;;4908244;29;20032;-81
2023/11/08 04:25:21;;;;;;;2.30;1.50;;;9.70;98.60;;;;;;4913825;29;20036;-81
2023/11/08 04:27:47;;;;;;;1.88;1.23;;;9.70;98.60;;;;;;4912272;29;20028;-81
2023/11/08 04:30:13;;;;;;;2.80;1.27;;;9.60;98.60;;;;;;4913087;29;20040;-81
2023/11/08 04:32:40;;;;;;;5.35;2.10;;;9.60;98.70;;;;;;4908858;29;20043;-81
2023/11/08 04:35:06;;;;;;;4.07;1.83;;;9.60;98.80;;;;;;4913323;29;20095;-81
2023/11/08 04:37:33;;;;;;;2.75;1.55;;;9.60;98.80;;;;;;4912479;29;20118;-81
2023/11/08 04:39:59;;;;;;;2.47;1.70;;;9.60;98.80;;;;;;4912150;29;20035;-80
2023/11/08 04:42:25;;;;;;;1.90;1.50;;;9.70;98.80;;;;;;4911592;29;20402;-81
2023/11/08 04:44:50;;;;;;;3.60;1.40;;;9.60;98.70;;;;;;4909259;29;20020;-81
2023/11/08 04:47:20;;;;;;;2.03;1.73;;;9.60;98.70;;;;;;4909166;29;20057;-80
2023/11/08 04:49:50;;;;;;;2.40;1.45;;;9.70;98.80;;;;;;4910517;29;20028;-82
2023/11/08 04:52:16;;;;;;;3.55;1.50;;;9.60;98.80;;;;;;4912980;29;20480;-81
2023/11/08 04:54:43;;;;;;;3.33;2.15;;;9.60;98.90;;;;;;4912110;29;20028;-81
2023/11/08 04:57:09;;;;;;;2.75;2.00;;;9.60;98.90;;;;;;4909977;29;20036;-80
2023/11/08 04:59:35;;;;;;;4.68;2.63;;;9.60;98.90;;;;;;4910261;29;20024;-81
2023/11/08 05:02:00;;;;;;;3.10;2.00;;;9.60;99.00;;;;;;4911331;29;20092;-81
2023/11/08 05:04:27;;;;;;;2.80;1.80;;;9.60;99.00;;;;;;4911946;29;20115;-81
2023/11/08 05:06:53;;;;;;;2.38;1.60;;;9.60;99.00;;;;;;4912204;29;20042;-81
2023/11/08 05:09:19;;;;;;;3.30;1.85;;;9.60;99.00;;;;;;4911631;29;20454;-81
2023/11/08 05:11:45;;;;;;;2.60;1.73;;;9.60;98.90;;;;;;4910998;29;20036;-81
2023/11/08 05:14:11;;;;;;;2.50;1.45;;;9.60;98.90;;;;;;4906663;29;20100;-81
2023/11/08 05:16:37;;;;;;;2.65;1.90;;;9.60;98.90;;;;;;4909248;29;20036;-81
2023/11/08 05:19:05;;;;;;;2.85;1.70;;;9.60;99.00;;;;;;4910993;29;20024;-81
2023/11/08 05:21:30;;;;;;;2.55;1.50;;;9.50;99.10;;;;;;4912879;29;20032;-80
2023/11/08 05:23:56;;;;;;;3.83;2.08;;;9.50;99.10;;;;;;4912718;29;20036;-81
2023/11/08 05:26:22;;;;;;;2.60;1.58;;;9.50;99.10;;;;;;4910978;29;20119;-80
2023/11/08 05:28:48;;;;;;;5.13;2.20;;;9.50;99.10;;;;;;4906877;29;20123;-81
2023/11/08 05:31:16;;;;;;;3.00;1.60;;;9.50;99.10;;;;;;4905014;29;20135;-81
2023/11/08 05:33:42;;;;;;;2.15;1.48;;;9.50;99.10;;;;;;4912740;29;20103;-81
2023/11/08 05:36:08;;;;;;;5.72;1.92;;;9.50;99.10;;;;;;4912509;29;20114;-81
2023/11/08 05:38:34;;;;;;;3.38;1.50;;;9.50;99.40;;;;;;4909615;29;20127;-81
2023/11/08 05:40:59;;;;;;;3.10;1.60;;;9.50;99.10;;;;;;4909839;29;20028;-81
2023/11/08 05:43:25;;;;;;;2.03;1.25;;;9.50;99.10;;;;;;4909410;29;20028;-82
2023/11/08 05:45:55;;;;;;;3.28;1.42;;;9.50;99.10;;;;;;4911640;29;20396;-80
2023/11/08 05:48:21;;;;;;;3.78;1.60;;;9.50;99.10;;;;;;4910506;29;20028;-79
2023/11/08 05:50:46;;;;;;;2.53;1.38;;;9.50;99.10;;;;;;4913386;29;20589;-82
2023/11/08 05:53:14;;;;;;;1.42;1.20;;;9.50;99.10;;;;;;4910463;29;20036;-81
2023/11/08 05:55:42;;;;;;;3.88;1.55;;;9.50;99.10;;;;;;4909967;29;20515;-81
2023/11/08 05:58:08;;;;;;;4.15;1.88;;;9.50;99.10;;;;;;4922097;29;20040;-81
2023/11/08 06:00:34;;;;;;;2.30;1.52;;;9.50;99.10;;;;;;4914121;29;20083;-81
2023/11/08 06:03:00;;;;;;;1.98;1.30;;;9.50;99.10;;;;;;4910492;29;20152;-81
2023/11/08 06:05:28;;;;;;;2.75;1.40;;;9.50;99.10;;;;;;4911649;29;20852;-81
2023/11/08 06:07:55;;;;;;;3.08;1.48;;;9.50;99.10;;;;;;4917376;29;20126;-81
2023/11/08 06:10:21;;;;;;;2.67;1.80;;;9.50;99.10;;;;;;4912693;29;20032;-80
2023/11/08 06:12:46;;;;;;;2.65;1.58;;;9.40;99.10;;;;;;4915720;29;20083;-81
2023/11/08 06:15:14;;;;;;;3.10;1.67;;;9.40;99.10;;;;;;4910976;29;20028;-81
2023/11/08 06:17:39;;;;;;;1.98;1.30;;;9.40;99.10;;;;;;4906347;29;20497;-80
2023/11/08 06:20:08;;;;;;;1.48;1.20;;;9.40;99.10;;;;;;4912315;29;20099;-80
2023/11/08 06:22:34;;;;;;;3.78;1.60;;;9.40;99.10;;;;;;4922653;29;20028;-80
2023/11/08 06:25:00;;;;;;;3.13;1.40;;;9.40;99.00;;;;;;4906930;29;20511;-81
2023/11/08 06:27:26;;;;;;;1.77;1.30;;;9.40;99.00;;;;;;4905509;29;20397;-82
2023/11/08 06:29:51;;;;;;;1.90;1.40;;;9.30;99.10;;;;;;4903544;29;20025;-81
2023/11/08 06:32:20;;;;;;;1.92;1.30;;;9.30;99.10;;;;;;4906629;29;20055;-82
2023/11/08 06:34:46;;;;;;;2.75;1.20;;;9.30;99.20;;;;;;4909832;29;20115;-82
2023/11/08 06:37:13;;;;;;;1.50;1.10;;;9.20;99.20;;;;;;4920473;29;20024;-82
2023/11/08 06:39:39;;;;;;;2.65;1.30;;;9.20;99.30;;;;;;4908391;29;20059;-82
2023/11/08 06:42:08;;;;;;;1.33;1.10;;;9.20;99.40;;;;;;4907605;29;20103;-83
2023/11/08 06:44:33;;;;;;;1.70;1.30;;;9.20;99.40;;;;;;4909388;29;20047;-82
2023/11/08 06:46:59;;;;;;;2.45;1.15;;;9.20;99.40;;;;;;4907364;29;20036;-83
2023/11/08 06:49:25;;;;;;;1.95;1.40;;;9.10;99.40;;;;;;4911764;29;20036;-82
2023/11/08 06:51:51;;;;;;;2.42;1.30;;;9.10;99.40;;;;;;4906258;29;20492;-81
2023/11/08 06:54:16;;;;;;;2.30;1.30;;;9.10;99.40;;;;;;4915800;29;20028;-81
2023/11/08 06:56:42;;;;;;;2.28;1.23;;;9.10;99.40;;;;;;4914908;29;20043;-82
2023/11/08 06:59:07;;;;;;;4.30;1.80;;;9.20;99.40;;;;;;4911695;29;20028;-83
2023/11/08 07:01:35;;;;;;;3.97;1.42;;;9.10;99.30;;;;;;4922685;29;20039;-82
2023/11/08 07:04:01;;;;;;;4.47;1.40;;;9.10;99.30;;;;;;4913637;29;20036;-82
2023/11/08 07:06:26;;;;;;;2.25;1.60;;;9.10;99.30;;;;;;4932816;29;20034;-91
2023/11/08 07:08:53;;;;;;;2.85;1.40;;;9.10;99.20;;;;;;4939993;28;20032;-96
2023/11/08 07:11:19;;;;;;;3.65;1.40;;;9.10;99.20;;;;;;4913152;29;20379;-84
2023/11/08 07:13:44;;;;;;;2.05;1.40;;;9.10;99.20;;;;;;4906754;29;20488;-83
2023/11/08 07:16:10;;;;;;;3.50;1.50;;;9.00;99.10;;;;;;4908100;29;20035;-82
2023/11/08 07:18:35;;;;;;;2.88;1.30;;;9.10;99.10;;;;;;4910808;29;20028;-82
2023/11/08 07:21:01;;;;;;;3.97;1.50;;;9.00;99.10;;;;;;4909468;29;20042;-83
2023/11/08 07:23:27;;;;;;;3.58;1.70;;;9.00;99.10;;;;;;4903528;29;20031;-83
2023/11/08 07:25:52;;;;;;;3.85;1.77;;;9.00;99.10;;;;;;4910486;29;20071;-83
2023/11/08 07:28:18;;;;;;;3.08;1.52;;;9.00;99.10;;;;;;4909571;29;20016;-83
2023/11/08 07:30:44;;;;;;;4.18;1.50;;;9.00;99.10;;;;;;4909908;29;20040;-83
2023/11/08 07:33:09;;;;;;;3.55;1.40;;;9.00;99.20;;;;;;4907352;29;20100;-83
2023/11/08 07:35:35;;;;;;;1.42;1.15;;;9.00;99.10;;;;;;4910356;29;20494;-83
2023/11/08 07:38:00;;;;;;;2.90;1.33;;;9.00;99.10;;;;;;4910933;29;20547;-83
2023/11/08 07:40:27;;;;;;;3.78;1.33;;;9.00;99.10;;;;;;4905506;29;20457;-83
2023/11/08 07:42:52;;;;;;;1.92;1.40;;;9.10;99.10;;;;;;4910792;29;20032;-83
2023/11/08 07:45:18;;;;;;;5.10;1.63;;;9.10;99.00;;;;;;4906454;29;20085;-83
2023/11/08 07:47:45;;;;;;;5.00;1.40;;;9.00;99.00;;;;;;4909865;29;20024;-83
2023/11/08 07:50:11;;;;;;;3.65;1.58;;;9.10;99.00;;;;;;4908268;29;20452;-83
2023/11/08 07:52:37;;;;;;;5.07;2.08;;;9.00;99.00;;;;;;4913977;29;20039;-83
2023/11/08 07:55:05;;;;;;;4.00;1.80;;;9.00;98.90;;;;;;4910986;29;20028;-82
2023/11/08 07:57:30;;;;;;;5.70;1.88;;;9.00;98.90;;;;;;4924638;29;20036;-83
2023/11/08 07:59:56;;;;;;;2.17;1.25;;;9.00;99.00;;;;;;4914578;29;20032;-83
2023/11/08 08:02:21;;;;;;;1.20;1.10;;;9.00;99.00;;;;;;4908156;29;20020;-82
2023/11/08 08:04:48;;;;;;;2.28;1.45;;;9.00;99.00;;;;;;4910582;29;20028;-83
2023/11/08 08:07:14;;;;;;;1.63;1.10;;;9.10;99.00;;;;;;4908031;29;20498;-83
2023/11/08 08:09:39;;;;;;;4.55;1.83;;;9.10;98.90;;;;;;4916386;29;20063;-83
2023/11/08 08:12:07;;;;;;;3.42;1.50;;;9.10;98.80;;;;;;4908349;29;20045;-83
2023/11/08 08:14:33;;;;;;;3.75;1.55;;;9.10;98.80;;;;;;4911238;29;20032;-90
2023/11/08 08:17:02;;;;;;;2.28;1.50;;;9.00;98.80;;;;;;4910330;29;20059;-85
2023/11/08 08:19:29;;;;;;;2.00;1.48;;;9.00;98.70;;;;;;4914182;29;20067;-83
2023/11/08 08:21:58;;;;;;;4.55;1.67;;;9.00;98.80;;;;;;4910170;29;20167;-84
2023/11/08 08:24:24;;;;;;;7.13;1.88;;;9.00;98.70;;;;;;4913565;29;20087;-83
2023/11/08 08:26:50;;;;;;;2.90;1.30;;;9.00;98.80;;;;;;4914151;29;20484;-84
2023/11/08 08:29:16;;;;;;;2.72;1.17;;;9.00;98.80;;;;;;4927884;29;20028;-82
2023/11/08 08:31:42;;;;;;;3.83;1.88;;;9.10;98.80;;;;;;4912743;29;20058;-86
2023/11/08 08:34:07;;;;;;;4.28;1.88;;;9.10;98.70;;;;;;4912511;29;20404;-86
2023/11/08 08:36:33;;;;;;;3.40;1.30;;;9.10;98.70;;;;;;4913043;29;20036;-87
2023/11/08 08:38:59;;;;;;;5.22;1.90;;;9.10;98.70;;;;;;4912126;29;20039;-87
2023/11/08 08:41:24;;;;;;;2.50;1.73;;;9.10;98.70;;;;;;4914101;29;20234;-85
2023/11/08 08:43:50;;;;;;;3.83;2.15;;;9.10;98.70;;;;;;4911774;29;20131;-87
2023/11/08 08:46:15;;;;;;;3.55;1.70;;;9.10;98.60;;;;;;4912630;29;20123;-87
2023/11/08 08:48:42;;;;;;;2.58;1.40;;;9.10;98.80;;;;;;4912347;29;20040;-87
2023/11/08 08:51:08;;;;;;;2.80;1.50;;;9.10;98.70;;;;;;4909197;29;20622;-87
2023/11/08 08:53:35;;;;;;;2.20;1.30;;;9.20;98.70;;;;;;4912400;29;20048;-87
2023/11/08 08:56:01;;;;;;;3.20;1.70;;;9.20;98.60;;;;;;4912465;29;20107;-86
2023/11/08 08:58:27;;;;;;;2.92;1.70;;;9.20;98.60;;;;;;4914180;29;20020;-89
2023/11/08 09:00:53;;;;;;;2.78;1.45;;;9.40;98.60;;;;;;4913786;29;20051;-86
2023/11/08 09:03:18;;;;;;;6.38;2.40;;;9.40;98.50;;;;;;4911662;29;20463;-86
2023/11/08 09:05:44;;;;;;;2.97;1.48;;;9.50;98.50;;;;;;4913000;29;20066;-88
2023/11/08 09:08:09;;;;;;;3.40;1.80;;;9.60;98.40;;;;;;4911476;29;20028;-85
2023/11/08 09:10:37;;;;;;;5.22;2.05;;;9.80;98.30;;;;;;4912574;29;20036;-88
2023/11/08 09:13:02;;;;;;;2.45;1.65;;;9.80;98.10;;;;;;4915251;29;20372;-85
2023/11/08 09:15:30;;;;;;;3.33;2.08;;;9.80;98.00;;;;;;4911853;29;20028;-87
2023/11/08 09:17:56;;;;;;;3.22;1.95;;;9.90;97.90;;;;;;4927843;29;20441;-82
2023/11/08 09:20:22;;;;;;;2.80;1.58;;;9.80;97.90;;;;;;4928023;29;20086;-88
2023/11/08 09:22:48;;;;;;;3.22;1.88;;;9.90;97.90;;;;;;4914022;29;20096;-90
2023/11/08 09:25:13;;;;;;;5.65;2.08;;;9.90;97.90;;;;;;4914270;29;20024;-91
2023/11/08 09:27:40;;;;;;;4.93;2.20;;;9.90;97.80;;;;;;4908447;29;20028;-88
2023/11/08 09:30:07;;;;;;;3.10;1.50;;;10.00;97.70;;;;;;4930314;29;20041;-90
2023/11/08 09:32:32;;;;;;;3.30;1.77;;;10.00;97.70;;;;;;4936219;29;20043;-92
2023/11/08 09:34:58;;;;;;;6.18;2.53;;;10.20;97.70;;;;;;4938563;28;20032;-88
2023/11/08 09:37:24;;;;;;;3.60;1.90;;;10.30;97.50;;;;;;4928070;29;20039;-86
2023/11/08 09:39:50;;;;;;;5.28;2.22;;;10.30;97.20;;;;;;4915665;29;20028;-89
2023/11/08 09:42:18;;;;;;;4.30;2.28;;;10.40;97.10;;;;;;4910849;29;20024;-88
2023/11/08 09:44:46;;;;;;;6.25;1.63;;;10.40;96.90;;;;;;4925874;29;20464;-88
2023/11/08 09:47:12;;;;;;;3.92;1.73;;;10.50;96.80;;;;;;4912526;29;20487;-87
2023/11/08 09:49:38;;;;;;;4.53;1.73;;;10.50;96.70;;;;;;4925466;29;20597;-90
2023/11/08 09:52:04;;;;;;;5.20;1.95;;;10.50;96.90;;;;;;4936205;29;20055;-91
2023/11/08 09:54:30;;;;;;;4.30;2.00;;;10.50;96.50;;;;;;4937918;29;20016;-92
2023/11/08 09:56:58;;;;;;;4.35;1.83;;;10.60;96.50;;;;;;4920747;29;20032;-87
2023/11/08 09:59:29;;;;;;;3.58;1.45;;;10.60;96.40;;;;;;4911842;29;20476;-88
2023/11/08 10:01:57;;;;;;;2.65;1.52;;;10.70;96.40;;;;;;4911173;29;20032;-89
2023/11/08 10:04:23;;;;;;;6.40;2.25;;;10.80;96.40;;;;;;4912811;29;20056;-87
2023/11/08 10:06:49;;;;;;;4.82;1.80;;;10.90;96.10;;;;;;4914486;29;20071;-88
2023/11/08 10:09:16;;;;;;;3.47;1.45;;;11.00;95.90;;;;;;4915952;29;20051;-88
2023/11/08 10:11:42;;;;;;;2.58;1.70;;;11.00;95.80;;;;;;4912400;29;20025;-88
2023/11/08 10:14:08;;;;;;;3.58;1.45;;;11.10;95.70;;;;;;4915541;29;20047;-91
2023/11/08 10:16:45;;;;;;;2.50;1.40;;;11.20;95.60;;;;;;4919100;29;20020;-91
2023/11/08 10:19:11;;;;;;;3.83;1.77;;;11.30;95.50;;;;;;4910921;29;20721;-91
2023/11/08 10:21:37;;;;;;;4.50;1.88;;;11.30;95.10;;;;;;4911260;29;20032;-95
2023/11/08 10:24:11;;;;;;;3.78;1.45;;;11.30;94.80;;;;;;4917726;29;20078;-93
2023/11/08 10:26:37;;;;;;;3.00;1.27;;;11.30;94.70;;;;;;4915989;29;20496;-92
2023/11/08 10:29:07;;;;;;;2.22;1.45;;;11.30;94.70;;;;;;4911206;29;20032;-93
2023/11/08 10:31:39;;;;;;;3.17;1.38;;;11.40;94.70;;;;;;4917901;29;20047;-91
2023/11/08 10:34:09;;;;;;;4.20;1.65;;;11.40;94.60;;;;;;4912639;29;20037;-90
2023/11/08 10:36:37;;;;;;;3.78;1.65;;;11.50;94.40;;;;;;4909687;29;20045;-90
2023/11/08 10:39:13;;;;;;;3.30;1.35;;;11.50;94.20;;;;;;4915184;29;20031;-91
2023/11/08 10:41:41;;;;;;;3.40;1.38;;;11.50;94.20;;;;;;4910196;29;22909;-93
2023/11/08 10:44:12;;;;;;;4.68;1.58;;;11.60;93.90;;;;;;4913128;29;20090;-91
2023/11/08 10:46:42;;;;;;;2.45;1.33;;;11.60;93.70;;;;;;4911257;29;20028;-89
2023/11/08 10:49:10;;;;;;;4.63;1.30;;;11.60;93.50;;;;;;4916422;29;20096;-89
2023/11/08 10:51:38;;;;;;;2.95;0.98;;;11.60;93.40;;;;;;4915194;29;21007;-89
2023/11/08 10:54:05;;;;;;;3.25;1.42;;;11.60;93.30;;;;;;4909185;29;20032;-84
2023/11/08 10:56:31;;;;;;;3.63;1.48;;;11.60;92.90;;;;;;4908096;29;20032;-86
2023/11/08 10:58:59;;;;;;;3.92;1.33;;;11.60;92.70;;;;;;4910643;29;20115;-90
2023/11/08 11:01:30;;;;;;;5.38;1.92;;;11.60;92.30;;;;;;4914050;29;20522;-89
2023/11/08 11:04:02;;;;;;;3.20;1.50;;;11.50;91.60;;;;;;4913895;29;20031;-92
2023/11/08 11:06:29;;;;;;;5.10;1.80;;;11.50;91.70;;;;;;4916004;29;20056;-89
2023/11/08 11:08:57;;;;;;;3.33;1.65;;;11.50;91.60;;;;;;4912822;29;20028;-89
2023/11/08 11:11:23;;;;;;;5.93;1.63;;;11.50;91.30;;;;;;4914764;29;20055;-88
2023/11/08 11:13:57;;;;;;;7.10;1.48;;;11.50;91.50;;;;;;4914253;29;20104;-89
2023/11/08 11:16:29;;;;;;;1.30;0.90;;;11.50;91.50;;;;;;4912492;29;20068;-89
2023/11/08 11:19:00;;;;;;;3.70;1.23;;;11.60;91.70;;;;;;4910569;29;20024;-88
2023/11/08 11:21:43;;;;;;;3.22;1.40;;;11.70;91.60;;;;;;4907506;29;20031;-89
2023/11/08 11:24:42;;;;;;;2.95;1.65;;;11.70;91.40;;;;;;4909429;29;20112;-89
2023/11/08 11:27:10;;;;;;;2.80;1.55;;;11.70;91.30;;;;;;4907422;29;20025;-89
2023/11/08 11:29:37;;;;;;;3.03;1.30;;;11.70;91.00;;;;;;4920760;29;20035;-86
2023/11/08 11:32:05;;;;;;;4.22;1.30;;;11.80;91.10;;;;;;4907356;29;20039;-86
2023/11/08 11:34:33;;;;;;;3.42;1.45;;;11.80;91.00;;;;;;4909750;29;20035;-87
2023/11/08 11:37:13;;;;;;;3.55;1.40;;;11.90;90.90;;;;;;4910333;29;20032;-87
2023/11/08 11:39:49;;;;;;;2.83;1.25;;;12.00;90.90;;;;;;4909904;29;20028;-87
2023/11/08 11:42:19;;;;;;;3.22;1.35;;;12.00;90.90;;;;;;4911490;29;20088;-87
2023/11/08 11:44:51;;;;;;;3.85;1.40;;;12.10;90.60;;;;;;4908102;29;20040;-87
2023/11/08 11:47:17;;;;;;;;;;;12.10;90.60;;;;;;4906441;29;20024;-87
2023/11/08 11:49:49;;;;;;;4.13;1.50;;;12.10;90.00;;;;;;4915967;29;19919;-86
2023/11/08 11:52:22;;;;;;;5.10;1.33;;;12.00;90.10;;;;;;4920361;29;20040;-86
2023/11/08 11:54:50;;;;;;;3.15;1.17;;;12.00;90.30;;;;;;4914934;29;20028;-86
2023/11/08 11:57:17;;;;;;;2.35;1.35;;;12.10;90.60;;;;;;4911223;29;20042;-85
2023/11/08 11:59:51;;;;;;;3.75;1.48;;;12.10;90.30;;;;;;4919700;29;20032;-84
2023/11/08 12:02:17;;;;;;;3.47;1.55;;;12.20;90.00;;;;;;4920116;29;20126;-86
2023/11/08 12:04:44;;;;;;;4.93;1.40;;;12.30;89.50;;;;;;4909312;29;20043;-89
2023/11/08 12:07:11;;;;;;;1.80;0.90;;;12.40;89.50;;;;;;4914024;29;20035;-88
2023/11/08 12:09:39;;;;;;;3.03;1.20;;;12.40;89.70;;;;;;4915915;29;20024;-86
2023/11/08 12:12:06;;;;;;;4.20;1.30;;;12.40;89.60;;;;;;4905705;29;20067;-85
2023/11/08 12:14:33;;;;;;;4.13;1.80;;;12.40;88.80;;;;;;4911946;29;20107;-85
2023/11/08 12:16:59;;;;;;;2.85;1.15;;;12.40;88.00;;;;;;4910907;29;20035;-86
2023/11/08 12:19:30;;;;;;;3.72;1.30;;;12.40;88.40;;;;;;4908095;29;20499;-88
2023/11/08 12:21:56;;;;;;;5.85;1.60;;;12.40;88.30;;;;;;4905325;29;20164;-88
2023/11/08 12:24:22;;;;;;;5.10;1.30;;;12.50;87.80;;;;;;4908726;29;20043;-84
2023/11/08 12:26:48;;;;;;;3.33;1.40;;;12.60;87.70;;;;;;4912170;29;20028;-88
2023/11/08 12:29:16;;;;;;;5.78;1.50;;;12.50;87.50;;;;;;4912961;29;20028;-86
2023/11/08 12:31:44;;;;;;;2.58;1.23;;;12.50;86.60;;;;;;4915147;29;20050;-88
2023/11/08 12:34:10;;;;;;;4.72;1.60;;;12.50;87.00;;;;;;4910936;29;20397;-89
2023/11/08 12:36:39;;;;;;;2.45;1.20;;;12.50;86.90;;;;;;4906324;29;20021;-88
2023/11/08 12:39:16;;;;;;;2.20;1.23;;;12.50;87.60;;;;;;4912241;29;20498;-85
2023/11/08 12:41:49;;;;;;;3.95;0.90;;;12.50;86.20;;;;;;4907875;29;20039;-85
2023/11/08 12:44:18;;;;;;;2.20;1.13;;;12.40;86.70;;;;;;4911792;29;20027;-86
2023/11/08 12:46:53;;;;;;;2.55;0.90;;;12.50;87.00;;;;;;4913707;29;20036;-87
2023/11/08 12:49:23;;;;;;;2.50;1.10;;;12.50;87.80;;;;;;4914151;29;20064;-87
2023/11/08 12:51:48;;;;;;;4.00;1.20;;;12.50;86.60;;;;;;4911184;29;20048;-87